createdAt,value
2022-12-11T00:01:00.069Z,101075.94
2022-12-11T00:03:27.988Z,101064.31
2022-12-11T00:05:55.475Z,101058.75
2022-12-11T00:08:22.908Z,101066.97
2022-12-11T00:10:50.624Z,101065.03
2022-12-11T00:13:17.924Z,101042.59
2022-12-11T00:15:45.360Z,101047.91
2022-12-11T00:18:14.331Z,101035.66
2022-12-11T00:20:42.235Z,101047.09
2022-12-11T00:23:09.446Z,101039.03
2022-12-11T00:25:44.562Z,101039.22
2022-12-11T00:28:21.548Z,101044.47
2022-12-11T00:30:48.854Z,101044.22
2022-12-11T00:33:16.734Z,101050.09
2022-12-11T00:35:47.667Z,101048.00
2022-12-11T00:38:20.746Z,101032.91
2022-12-11T00:40:49.663Z,101005.59
2022-12-11T00:43:17.093Z,101012.78
2022-12-11T00:45:46.688Z,101033.53
2022-12-11T00:48:14.172Z,101027.78
2022-12-11T00:50:42.731Z,101019.34
2022-12-11T00:53:10.174Z,101007.38
2022-12-11T00:55:39.833Z,100972.38
2022-12-11T00:58:08.075Z,100985.56
2022-12-11T01:00:35.943Z,100980.47
2022-12-11T01:03:03.927Z,100980.31
2022-12-11T01:05:31.784Z,100960.00
2022-12-11T01:07:59.838Z,100951.56
2022-12-11T01:10:27.587Z,100927.66
2022-12-11T01:13:04.317Z,100932.97
2022-12-11T01:15:41.952Z,100930.50
2022-12-11T01:18:15.108Z,100940.63
2022-12-11T01:20:44.060Z,100933.75
2022-12-11T01:23:14.270Z,100910.84
2022-12-11T01:25:42.805Z,100946.44
2022-12-11T01:28:11.199Z,100947.09
2022-12-11T01:30:38.592Z,100961.09
2022-12-11T01:33:05.995Z,100950.44
2022-12-11T01:35:33.504Z,100951.44
2022-12-11T01:38:01.122Z,100941.75
2022-12-11T01:40:28.352Z,100950.31
2022-12-11T01:42:56.474Z,100958.09
2022-12-11T01:45:27.274Z,100940.31
2022-12-11T01:48:00.860Z,100971.41
2022-12-11T01:50:29.975Z,100959.31
2022-12-11T01:52:58.033Z,100962.97
2022-12-11T01:55:25.393Z,100966.09
2022-12-11T01:57:53.219Z,100961.50
2022-12-11T02:00:21.676Z,100976.84
2022-12-11T02:02:49.396Z,100967.94
2022-12-11T02:05:17.131Z,100958.41
2022-12-11T02:07:49.687Z,100968.94
2022-12-11T02:10:17.640Z,100950.13
2022-12-11T02:13:02.886Z,100975.84
2022-12-11T02:15:50.095Z,100970.72
2022-12-11T02:18:43.403Z,100964.06
2022-12-11T02:21:25.093Z,100953.63
2022-12-11T02:24:11.371Z,100935.81
2022-12-11T02:26:55.777Z,100934.94
2022-12-11T02:29:46.723Z,100928.16
2022-12-11T02:32:34.456Z,100925.81
2022-12-11T02:35:21.581Z,100926.69
2022-12-11T02:37:54.108Z,100910.81
2022-12-11T02:40:28.531Z,100918.47
2022-12-11T02:42:58.325Z,100912.34
2022-12-11T02:45:27.906Z,100911.47
2022-12-11T02:47:59.235Z,100909.34
2022-12-11T02:50:28.547Z,100915.56
2022-12-11T02:52:57.959Z,100924.47
2022-12-11T02:55:29.076Z,100918.47
2022-12-11T02:58:22.962Z,100918.56
2022-12-11T03:00:51.646Z,100905.81
2022-12-11T03:03:19.110Z,100892.28
2022-12-11T03:05:46.777Z,100877.50
2022-12-11T03:08:17.803Z,100895.97
2022-12-11T03:10:46.407Z,100872.50
2022-12-11T03:13:18.975Z,100880.06
2022-12-11T03:15:55.380Z,100897.69
2022-12-11T03:18:41.687Z,100897.88
2022-12-11T03:21:21.079Z,100889.88
2022-12-11T03:24:03.354Z,100880.22
2022-12-11T03:26:33.244Z,100888.97
2022-12-11T03:29:11.804Z,100885.75
2022-12-11T03:31:47.272Z,100890.59
2022-12-11T03:34:37.560Z,100882.50
2022-12-11T03:37:06.609Z,100870.81
2022-12-11T03:39:38.860Z,100871.81
2022-12-11T03:42:11.143Z,100879.28
2022-12-11T03:44:38.998Z,100876.75
2022-12-11T03:47:09.266Z,100868.19
2022-12-11T03:49:43.915Z,100857.97
2022-12-11T03:52:13.286Z,100854.41
2022-12-11T03:54:44.011Z,100849.75
2022-12-11T03:57:16.697Z,100836.66
2022-12-11T03:59:44.635Z,100836.19
2022-12-11T04:02:12.650Z,100831.09
2022-12-11T04:04:43.579Z,100819.47
2022-12-11T04:07:10.880Z,100814.47
2022-12-11T04:09:38.651Z,100808.88
2022-12-11T04:12:06.322Z,100809.66
2022-12-11T04:14:52.078Z,100811.88
2022-12-11T04:17:39.811Z,100810.44
2022-12-11T04:20:26.429Z,100807.00
2022-12-11T04:23:12.645Z,100800.75
2022-12-11T04:25:40.073Z,100798.97
2022-12-11T04:28:07.353Z,100789.97
2022-12-11T04:30:35.179Z,100782.31
2022-12-11T04:33:02.788Z,100791.41
2022-12-11T04:35:30.322Z,100791.75
2022-12-11T04:37:57.756Z,100782.50
2022-12-11T04:40:25.089Z,100792.16
2022-12-11T04:42:52.574Z,100792.16
2022-12-11T04:45:20.068Z,100799.19
2022-12-11T04:47:47.630Z,100793.81
2022-12-11T04:50:16.611Z,100791.72
2022-12-11T04:52:45.261Z,100771.41
2022-12-11T04:55:13.860Z,100771.06
2022-12-11T04:57:42.049Z,100782.44
2022-12-11T05:00:15.222Z,100754.22
2022-12-11T05:02:43.568Z,100746.88
2022-12-11T05:05:13.409Z,100772.00
2022-12-11T05:07:41.320Z,100759.53
2022-12-11T05:10:09.466Z,100756.22
2022-12-11T05:12:36.974Z,100767.44
2022-12-11T05:15:04.470Z,100761.88
2022-12-11T05:17:31.862Z,100756.00
2022-12-11T05:19:59.150Z,100745.56
2022-12-11T05:22:26.645Z,100749.78
2022-12-11T05:24:54.138Z,100732.25
2022-12-11T05:27:21.405Z,100739.22
2022-12-11T05:29:48.824Z,100734.13
2022-12-11T05:32:16.788Z,100727.16
2022-12-11T05:34:44.308Z,100712.94
2022-12-11T05:37:11.769Z,100715.50
2022-12-11T05:39:39.746Z,100705.16
2022-12-11T05:42:07.010Z,100702.22
2022-12-11T05:44:34.217Z,100698.56
2022-12-11T05:47:02.041Z,100693.34
2022-12-11T05:49:31.116Z,100688.25
2022-12-11T05:51:58.693Z,100691.47
2022-12-11T05:54:25.967Z,100698.13
2022-12-11T05:56:53.482Z,100679.13
2022-12-11T05:59:20.833Z,100679.03
2022-12-11T06:01:48.769Z,100679.56
2022-12-11T06:04:16.460Z,100679.81
2022-12-11T06:06:46.721Z,100679.50
2022-12-11T06:09:21.467Z,100673.28
2022-12-11T06:11:50.100Z,100642.66
2022-12-11T06:14:17.868Z,100665.09
2022-12-11T06:16:45.421Z,100656.56
2022-12-11T06:19:18.647Z,100654.88
2022-12-11T06:21:46.933Z,100645.25
2022-12-11T06:24:14.380Z,100656.44
2022-12-11T06:26:42.050Z,100660.66
2022-12-11T06:29:12.965Z,100653.66
2022-12-11T06:31:41.015Z,100643.69
2022-12-11T06:34:09.449Z,100618.94
2022-12-11T06:36:37.125Z,100637.81
2022-12-11T06:39:05.082Z,100637.91
2022-12-11T06:41:32.518Z,100633.03
2022-12-11T06:44:00.202Z,100641.91
2022-12-11T06:46:27.852Z,100637.59
2022-12-11T06:48:55.337Z,100626.38
2022-12-11T06:51:23.956Z,100626.91
2022-12-11T06:53:56.853Z,100605.53
2022-12-11T06:56:25.686Z,100619.63
2022-12-11T06:58:55.477Z,100617.94
2022-12-11T07:01:28.661Z,100624.59
2022-12-11T07:03:57.757Z,100610.53
2022-12-11T07:06:28.322Z,100600.75
2022-12-11T07:08:57.068Z,100605.59
2022-12-11T07:11:24.675Z,100595.97
2022-12-11T07:13:52.942Z,100593.72
2022-12-11T07:16:20.515Z,100589.63
2022-12-11T07:18:50.847Z,100602.50
2022-12-11T07:21:19.869Z,100596.88
2022-12-11T07:23:49.114Z,100604.16
2022-12-11T07:26:21.907Z,100601.94
2022-12-11T07:28:49.837Z,100597.69
2022-12-11T07:31:23.554Z,100588.84
2022-12-11T07:33:55.569Z,100592.06
2022-12-11T07:36:24.183Z,100587.63
2022-12-11T07:38:51.703Z,100608.50
2022-12-11T07:41:19.302Z,100616.38
2022-12-11T07:43:54.101Z,100590.88
2022-12-11T07:46:24.186Z,100606.50
2022-12-11T07:48:53.135Z,100612.72
2022-12-11T07:51:29.241Z,100615.16
2022-12-11T07:53:59.913Z,100609.50
2022-12-11T07:56:28.613Z,100607.59
2022-12-11T07:58:56.667Z,100580.66
2022-12-11T08:01:26.840Z,100614.13
2022-12-11T08:03:55.506Z,100590.28
2022-12-11T08:06:28.940Z,100587.16
2022-12-11T08:08:57.707Z,100611.53
2022-12-11T08:11:25.818Z,100621.50
2022-12-11T08:13:55.339Z,100602.63
2022-12-11T08:16:23.646Z,100603.50
2022-12-11T08:18:51.914Z,100616.06
2022-12-11T08:21:22.169Z,100613.59
2022-12-11T08:23:50.735Z,100620.91
2022-12-11T08:26:27.634Z,100613.34
2022-12-11T08:28:55.868Z,100577.06
2022-12-11T08:31:24.028Z,100614.97
2022-12-11T08:33:53.226Z,100597.19
2022-12-11T08:36:22.701Z,100597.94
2022-12-11T08:38:50.739Z,100609.34
2022-12-11T08:41:24.683Z,100560.69
2022-12-11T08:43:56.702Z,100602.78
2022-12-11T08:46:27.342Z,100612.31
2022-12-11T08:48:55.822Z,100609.84
2022-12-11T08:51:25.472Z,100608.00
2022-12-11T08:54:01.823Z,100611.72
2022-12-11T08:56:30.404Z,100609.59
2022-12-11T08:59:01.790Z,100611.00
2022-12-11T09:01:29.843Z,100618.88
2022-12-11T09:03:58.735Z,100619.44
2022-12-11T09:06:29.565Z,100616.22
2022-12-11T09:09:00.342Z,100616.16
2022-12-11T09:11:31.377Z,100612.91
2022-12-11T09:14:05.201Z,100616.94
2022-12-11T09:16:40.956Z,100581.75
2022-12-11T09:19:15.790Z,100605.53
2022-12-11T09:21:44.603Z,100606.72
2022-12-11T09:24:13.772Z,100607.03
2022-12-11T09:26:42.086Z,100594.91
2022-12-11T09:29:10.932Z,100598.16
2022-12-11T09:31:39.461Z,100588.44
2022-12-11T09:34:12.261Z,100600.25
2022-12-11T09:36:41.055Z,100557.41
2022-12-11T09:39:09.802Z,100593.38
2022-12-11T09:41:38.668Z,100568.56
2022-12-11T09:44:11.889Z,100601.16
2022-12-11T09:46:40.936Z,100597.59
2022-12-11T09:49:21.393Z,100606.44
2022-12-11T09:51:59.134Z,100599.84
2022-12-11T09:54:27.655Z,100609.59
2022-12-11T09:56:54.724Z,100580.84
2022-12-11T09:59:42.299Z,100599.84
2022-12-11T10:02:24.771Z,100602.88
2022-12-11T10:05:27.313Z,100608.41
2022-12-11T10:08:21.959Z,100599.03
2022-12-11T10:11:06.166Z,100598.16
2022-12-11T10:14:01.082Z,100600.09
2022-12-11T10:16:28.542Z,100594.19
2022-12-11T10:18:56.533Z,100594.66
2022-12-11T10:21:24.557Z,100605.91
2022-12-11T10:23:58.989Z,100597.63
2022-12-11T10:26:28.691Z,100588.75
2022-12-11T10:29:00.895Z,100584.50
2022-12-11T10:31:53.787Z,100595.31
2022-12-11T10:34:44.604Z,100601.75
2022-12-11T10:37:12.125Z,100596.81
2022-12-11T10:39:39.237Z,100603.69
2022-12-11T10:42:18.773Z,100603.28
2022-12-11T10:45:04.204Z,100599.16
2022-12-11T10:47:33.757Z,100595.94
2022-12-11T10:50:02.793Z,100596.56
2022-12-11T10:52:39.597Z,100557.63
2022-12-11T10:55:28.167Z,100568.25
2022-12-11T10:58:03.355Z,100567.78
2022-12-11T11:00:42.672Z,100568.59
2022-12-11T11:03:27.738Z,100569.50
2022-12-11T11:06:17.926Z,100573.47
2022-12-11T11:08:48.054Z,100558.88
2022-12-11T11:11:39.884Z,100577.28
2022-12-11T11:14:21.821Z,100567.91
2022-12-11T11:16:51.844Z,100570.69
2022-12-11T11:19:24.303Z,100570.41
2022-12-11T11:21:55.605Z,100565.88
2022-12-11T11:24:36.013Z,100566.78
2022-12-11T11:27:30.748Z,100526.09
2022-12-11T11:30:05.626Z,100533.97
2022-12-11T11:32:40.653Z,100547.59
2022-12-11T11:35:15.073Z,100548.63
2022-12-11T11:37:54.330Z,100532.19
2022-12-11T11:40:32.121Z,100541.66
2022-12-11T11:43:41.101Z,100539.97
2022-12-11T11:46:17.030Z,100537.94
2022-12-11T11:49:32.917Z,100536.00
2022-12-11T11:52:15.632Z,100539.34
2022-12-11T11:54:55.596Z,100509.06
2022-12-11T11:57:47.281Z,100511.44
2022-12-11T12:00:33.380Z,100497.31
2022-12-11T12:03:16.274Z,100496.94
2022-12-11T12:06:05.506Z,100495.34
2022-12-11T12:08:51.639Z,100509.28
2022-12-11T12:11:35.015Z,100487.28
2022-12-11T12:14:43.718Z,100504.25
2022-12-11T12:17:18.075Z,100470.94
2022-12-11T12:20:24.785Z,100481.22
2022-12-11T12:23:08.475Z,100485.56
2022-12-11T12:25:46.170Z,100481.50
2022-12-11T12:28:38.747Z,100464.31
2022-12-11T12:31:36.758Z,100494.06
2022-12-11T12:34:27.838Z,100486.59
2022-12-11T12:37:07.299Z,100458.44
2022-12-11T12:39:57.017Z,100474.41
2022-12-11T12:42:49.123Z,100468.13
2022-12-11T12:45:17.200Z,100474.41
2022-12-11T12:47:53.193Z,100462.44
2022-12-11T12:50:25.789Z,100464.44
2022-12-11T12:52:56.929Z,100456.91
2022-12-11T12:55:33.291Z,100465.09
2022-12-11T12:58:07.324Z,100429.75
2022-12-11T13:00:42.177Z,100458.75
2022-12-11T13:03:16.491Z,100461.94
2022-12-11T13:05:56.381Z,100462.91
2022-12-11T13:08:38.477Z,100462.13
2022-12-11T13:11:11.738Z,100435.94
2022-12-11T13:14:02.477Z,100449.75
2022-12-11T13:16:39.599Z,100469.19
2022-12-11T13:19:28.552Z,100467.09
2022-12-11T13:22:16.535Z,100460.44
2022-12-11T13:25:02.470Z,100443.47
2022-12-11T13:27:31.658Z,100460.47
2022-12-11T13:30:22.857Z,100450.59
2022-12-11T13:32:57.917Z,100421.47
2022-12-11T13:35:26.013Z,100450.41
2022-12-11T13:37:57.364Z,100445.03
2022-12-11T13:40:28.634Z,100437.75
2022-12-11T13:43:08.057Z,100436.44
2022-12-11T13:45:51.408Z,100452.28
2022-12-11T13:48:38.262Z,100442.09
2022-12-11T13:51:18.933Z,100443.47
2022-12-11T13:53:47.470Z,100446.63
2022-12-11T13:56:20.974Z,100415.75
2022-12-11T13:58:49.751Z,100451.47
2022-12-11T14:01:31.406Z,100445.22
2022-12-11T14:04:16.638Z,100446.91
2022-12-11T14:06:44.372Z,100446.09
2022-12-11T14:09:23.950Z,100445.22
2022-12-11T14:11:56.748Z,100431.81
2022-12-11T14:14:44.181Z,100439.19
2022-12-11T14:17:15.672Z,100458.78
2022-12-11T14:19:48.767Z,100443.13
2022-12-11T14:22:23.241Z,100447.50
2022-12-11T14:24:53.269Z,100432.00
2022-12-11T14:27:24.368Z,100423.63
2022-12-11T14:29:52.215Z,100416.25
2022-12-11T14:32:43.616Z,100409.63
2022-12-11T14:35:27.320Z,100435.88
2022-12-11T14:37:55.211Z,100445.53
2022-12-11T14:40:29.887Z,100434.13
2022-12-11T14:43:03.198Z,100418.22
2022-12-11T14:45:45.886Z,100442.63
2022-12-11T14:48:45.404Z,100430.91
2022-12-11T14:51:18.922Z,100417.59
2022-12-11T14:53:49.448Z,100419.06
2022-12-11T14:56:26.295Z,100418.19
2022-12-11T14:58:59.253Z,100423.09
2022-12-11T15:01:36.847Z,100420.31
2022-12-11T15:04:23.375Z,100434.13
2022-12-11T15:06:53.612Z,100397.75
2022-12-11T15:09:37.460Z,100435.44
2022-12-11T15:12:15.985Z,100448.47
2022-12-11T15:15:08.779Z,100440.66
2022-12-11T15:17:38.188Z,100449.34
2022-12-11T15:20:25.652Z,100448.38
2022-12-11T15:25:25.803Z,100467.81
2022-12-11T15:27:59.122Z,100472.88
2022-12-11T15:30:30.064Z,100449.09
2022-12-11T15:33:11.223Z,100472.78
2022-12-11T15:35:41.687Z,100475.22
2022-12-11T15:38:31.223Z,100475.22
2022-12-11T15:40:59.531Z,100474.34
2022-12-11T15:43:28.480Z,100449.22
2022-12-11T15:45:57.514Z,100480.31
2022-12-11T15:48:25.381Z,100470.34
2022-12-11T15:50:53.239Z,100470.50
2022-12-11T15:53:23.458Z,100469.47
2022-12-11T15:55:52.551Z,100452.94
2022-12-11T15:58:22.367Z,100464.34
2022-12-11T16:00:49.997Z,100468.69
2022-12-11T16:03:22.899Z,100475.06
2022-12-11T16:05:54.084Z,100435.38
2022-12-11T16:08:28.209Z,100443.41
2022-12-11T16:10:56.741Z,100462.38
2022-12-11T16:13:24.462Z,100461.56
2022-12-11T16:15:55.407Z,100462.59
2022-12-11T16:18:24.305Z,100477.63
2022-12-11T16:20:53.017Z,100466.03
2022-12-11T16:23:20.784Z,100463.34
2022-12-11T16:25:48.508Z,100468.88
2022-12-11T16:28:18.775Z,100475.53
2022-12-11T16:30:46.952Z,100480.31
2022-12-11T16:33:14.688Z,100470.63
2022-12-11T16:35:43.722Z,100477.97
2022-12-11T16:38:12.501Z,100435.88
2022-12-11T16:40:40.942Z,100472.72
2022-12-11T16:43:14.730Z,100481.00
2022-12-11T16:45:47.276Z,100481.63
2022-12-11T16:48:15.538Z,100480.94
2022-12-11T16:50:42.928Z,100482.44
2022-12-11T16:53:14.084Z,100486.34
2022-12-11T16:55:44.163Z,100486.53
2022-12-11T16:58:16.708Z,100482.38
2022-12-11T17:00:44.861Z,100482.28
2022-12-11T17:03:12.686Z,100490.69
2022-12-11T17:05:42.574Z,100470.94
2022-12-11T17:08:10.699Z,100486.84
2022-12-11T17:10:42.239Z,100472.97
2022-12-11T17:13:09.813Z,100497.00
2022-12-11T17:15:41.758Z,100486.75
2022-12-11T17:18:13.365Z,100494.28
2022-12-11T17:20:45.331Z,100492.75
2022-12-11T17:23:13.974Z,100488.81
2022-12-11T17:25:43.486Z,100486.06
2022-12-11T17:28:12.855Z,100491.56
2022-12-11T17:30:43.387Z,100505.19
2022-12-11T17:33:12.119Z,100505.66
2022-12-11T17:35:39.974Z,100502.72
2022-12-11T17:38:07.750Z,100501.59
2022-12-11T17:40:36.097Z,100510.00
2022-12-11T17:43:07.308Z,100506.53
2022-12-11T17:45:35.077Z,100503.44
2022-12-11T17:48:03.075Z,100500.97
2022-12-11T17:50:30.962Z,100504.94
2022-12-11T17:53:00.657Z,100500.31
2022-12-11T17:55:28.409Z,100496.63
2022-12-11T17:57:56.086Z,100492.47
2022-12-11T18:00:25.414Z,100487.53
2022-12-11T18:02:55.539Z,100511.56
2022-12-11T18:05:23.553Z,100503.00
2022-12-11T18:07:55.981Z,100498.47
2022-12-11T18:10:25.273Z,100502.25
2022-12-11T18:12:53.239Z,100487.50
2022-12-11T18:15:21.162Z,100519.16
2022-12-11T18:17:52.051Z,100508.03
2022-12-11T18:20:20.092Z,100510.16
2022-12-11T18:22:47.544Z,100518.63
2022-12-11T18:25:17.928Z,100519.34
2022-12-11T18:27:46.075Z,100522.78
2022-12-11T18:30:15.401Z,100526.72
2022-12-11T18:32:43.775Z,100516.81
2022-12-11T18:35:12.656Z,100521.16
2022-12-11T18:37:42.614Z,100508.59
2022-12-11T18:40:12.887Z,100520.09
2022-12-11T18:42:40.684Z,100525.84
2022-12-11T18:45:10.494Z,100524.06
2022-12-11T18:47:39.459Z,100529.09
2022-12-11T18:50:08.306Z,100525.34
2022-12-11T18:52:36.546Z,100491.06
2022-12-11T18:55:05.009Z,100526.56
2022-12-11T18:57:33.724Z,100529.22
2022-12-11T19:00:07.805Z,100525.88
2022-12-11T19:02:36.517Z,100527.69
2022-12-11T19:05:04.294Z,100539.09
2022-12-11T19:07:32.028Z,100544.41
2022-12-11T19:10:02.057Z,100541.50
2022-12-11T19:12:29.534Z,100531.94
2022-12-11T19:14:57.818Z,100520.88
2022-12-11T19:17:25.366Z,100528.16
2022-12-11T19:19:53.254Z,100535.84
2022-12-11T19:22:20.774Z,100536.63
2022-12-11T19:24:48.130Z,100538.22
2022-12-11T19:27:15.617Z,100527.88
2022-12-11T19:29:43.536Z,100547.66
2022-12-11T19:32:11.024Z,100555.28
2022-12-11T19:34:39.339Z,100555.78
2022-12-11T19:37:07.154Z,100560.09
2022-12-11T19:39:35.088Z,100554.09
2022-12-11T19:42:02.726Z,100553.81
2022-12-11T19:44:29.983Z,100555.91
2022-12-11T19:46:57.463Z,100558.25
2022-12-11T19:49:25.546Z,100573.47
2022-12-11T19:51:53.212Z,100573.25
2022-12-11T19:54:20.849Z,100568.72
2022-12-11T19:56:48.383Z,100564.38
2022-12-11T19:59:17.353Z,100562.53
2022-12-11T20:01:48.390Z,100561.56
2022-12-11T20:04:17.376Z,100557.63
2022-12-11T20:06:46.661Z,100570.03
2022-12-11T20:09:14.730Z,100579.16
2022-12-11T20:11:47.833Z,100585.38
2022-12-11T20:14:24.725Z,100560.38
2022-12-11T20:17:10.898Z,100588.63
2022-12-11T20:19:40.430Z,100571.50
2022-12-11T20:22:08.607Z,100565.38
2022-12-11T20:24:36.796Z,100533.97
2022-12-11T20:27:05.090Z,100567.25
2022-12-11T20:29:32.608Z,100567.94
2022-12-11T20:32:00.779Z,100572.00
2022-12-11T20:34:28.490Z,100583.41
2022-12-11T20:36:57.227Z,100595.22
2022-12-11T20:39:24.888Z,100595.03
2022-12-11T20:41:52.642Z,100603.72
2022-12-11T20:44:20.339Z,100592.47
2022-12-11T20:46:47.785Z,100590.03
2022-12-11T20:49:15.270Z,100594.84
2022-12-11T20:51:52.018Z,100586.06
2022-12-11T20:54:19.555Z,100592.28
2022-12-11T20:56:47.371Z,100599.97
2022-12-11T20:59:15.415Z,100597.09
2022-12-11T21:01:43.480Z,100599.28
2022-12-11T21:04:11.300Z,100598.47
2022-12-11T21:06:41.082Z,100607.84
2022-12-11T21:09:12.944Z,100595.94
2022-12-11T21:11:40.831Z,100605.59
2022-12-11T21:14:08.473Z,100610.28
2022-12-11T21:16:38.122Z,100614.41
2022-12-11T21:19:06.511Z,100611.06
2022-12-11T21:21:37.250Z,100603.00
2022-12-11T21:24:05.671Z,100623.16
2022-12-11T21:26:34.255Z,100623.97
2022-12-11T21:29:01.477Z,100609.88
2022-12-11T21:31:29.788Z,100618.34
2022-12-11T21:33:57.809Z,100622.69
2022-12-11T21:36:25.184Z,100620.47
2022-12-11T21:38:52.487Z,100630.72
2022-12-11T21:41:22.842Z,100631.44
2022-12-11T21:44:56.693Z,100635.53
2022-12-11T21:46:40.064Z,100634.44
2022-12-11T21:49:08.724Z,100642.44
2022-12-11T21:51:43.914Z,100637.44
2022-12-11T21:54:19.229Z,100636.66
2022-12-11T21:56:47.497Z,100622.16
2022-12-11T21:59:15.133Z,100629.13
2022-12-11T22:01:46.381Z,100636.34
2022-12-11T22:04:14.904Z,100632.66
2022-12-11T22:06:44.034Z,100646.56
2022-12-11T22:09:13.000Z,100644.69
2022-12-11T22:11:45.675Z,100652.06
2022-12-11T22:14:18.326Z,100636.66
2022-12-11T22:16:46.858Z,100657.63
2022-12-11T22:19:14.498Z,100659.53
2022-12-11T22:21:41.953Z,100648.88
2022-12-11T22:24:09.477Z,100658.22
2022-12-11T22:29:19.481Z,100655.19
2022-12-11T22:31:48.780Z,100655.41
2022-12-11T22:34:16.352Z,100659.19
2022-12-11T22:37:03.767Z,100670.53
2022-12-11T22:39:37.528Z,100659.03
2022-12-11T22:42:37.418Z,100650.13
2022-12-11T22:45:07.679Z,100633.41
2022-12-11T22:47:35.565Z,100639.50
2022-12-11T22:50:04.711Z,100639.91
2022-12-11T22:52:33.124Z,100655.34
2022-12-11T22:55:00.442Z,100668.53
2022-12-11T22:57:28.517Z,100671.31
2022-12-11T22:59:57.594Z,100659.97
2022-12-11T23:02:25.386Z,100662.47
2022-12-11T23:04:52.623Z,100679.00
2022-12-11T23:07:19.927Z,100676.44
2022-12-11T23:09:47.163Z,100676.09
2022-12-11T23:12:14.417Z,100677.88
2022-12-11T23:14:41.638Z,100670.53
2022-12-11T23:17:08.901Z,100680.66
2022-12-11T23:19:36.715Z,100676.22
2022-12-11T23:22:04.961Z,100684.78
2022-12-11T23:24:32.384Z,100684.66
2022-12-11T23:27:13.091Z,100698.66
2022-12-11T23:29:47.933Z,100691.78
2022-12-11T23:32:18.842Z,100688.75
2022-12-11T23:35:14.109Z,100678.72
2022-12-11T23:37:44.916Z,100690.72
2022-12-11T23:40:15.092Z,100698.09
2022-12-11T23:42:42.836Z,100695.34
2022-12-11T23:45:12.463Z,100715.41
2022-12-11T23:47:41.652Z,100706.75
2022-12-11T23:50:10.379Z,100715.41
2022-12-11T23:52:42.500Z,100723.19
2022-12-11T23:55:11.999Z,100703.78
2022-12-11T23:57:39.485Z,100710.19
